Terminal Aerodrome Forecast
Issued by NWS

Home | Current Version | Previous Version | Text Only | Print | Product List | Glossary On
Versions: 1 2 3 4 5 6 7 8 9 10 11 12 13 14
000
FTUS44 KLZK 171700
TAFPBF
TAF
KPBF 171740Z 1718/1818 13006KT P6SM SCT100 BKN250
     FM180000 VRB03KT P6SM SCT060 BKN100
      TEMPO 1810/1814 BKN060
     FM181400 04007KT P6SM BKN060=

USA.gov is the U.S. government's official web portal to all federal, state and local government web resources and services.